createdAt,value
2023-06-17T00:01:31.162Z,97602.06
2023-06-17T00:04:33.518Z,97595.88
2023-06-17T00:07:35.887Z,97605.47
2023-06-17T00:10:38.414Z,97591.19
2023-06-17T00:13:40.713Z,97607.78
2023-06-17T00:16:45.184Z,97601.63
2023-06-17T00:19:47.511Z,97603.25
2023-06-17T00:22:49.960Z,97609.97
2023-06-17T00:25:52.210Z,97604.84
2023-06-17T00:28:54.627Z,97607.28
2023-06-17T00:31:57.736Z,97607.28
2023-06-17T00:35:00.208Z,97590.41
2023-06-17T00:38:02.837Z,97600.31
2023-06-17T00:41:05.204Z,97593.88
2023-06-17T00:44:07.646Z,97599.75
2023-06-17T00:47:12.611Z,97593.84
2023-06-17T00:50:16.630Z,97589.59
2023-06-17T00:53:19.143Z,97554.97
2023-06-17T00:56:21.472Z,97598.41
2023-06-17T00:59:23.946Z,97592.00
2023-06-17T01:02:27.510Z,97597.84
2023-06-17T01:05:30.145Z,97590.88
2023-06-17T01:08:59.349Z,97592.75
2023-06-17T01:12:03.974Z,97589.53
2023-06-17T01:15:06.941Z,97587.13
2023-06-17T01:18:10.083Z,97597.88
2023-06-17T01:21:14.003Z,97593.38
2023-06-17T01:24:28.767Z,97584.41
2023-06-17T01:27:34.855Z,97586.53
2023-06-17T01:30:37.113Z,97595.38
2023-06-17T01:33:43.314Z,97586.00
2023-06-17T01:36:47.318Z,97589.97
2023-06-17T01:39:52.636Z,97580.53
2023-06-17T01:42:55.556Z,97592.00
2023-06-17T01:45:59.634Z,97592.75
2023-06-17T01:49:02.175Z,97588.19
2023-06-17T01:52:05.407Z,97590.03
2023-06-17T01:55:08.112Z,97584.38
2023-06-17T01:58:11.680Z,97581.13
2023-06-17T02:01:13.920Z,97590.78
2023-06-17T02:04:16.203Z,97595.28
2023-06-17T02:07:19.063Z,97599.53
2023-06-17T02:10:21.526Z,97594.94
2023-06-17T02:13:24.096Z,97564.59
2023-06-17T02:16:26.593Z,97597.00
2023-06-17T02:19:33.448Z,97600.75
2023-06-17T02:22:35.910Z,97606.97
2023-06-17T02:25:41.325Z,97602.44
2023-06-17T02:28:44.075Z,97609.16
2023-06-17T02:31:46.518Z,97606.53
2023-06-17T02:34:52.171Z,97599.06
2023-06-17T02:37:55.692Z,97595.56
2023-06-17T02:40:59.987Z,97606.28
2023-06-17T02:44:02.201Z,97602.53
2023-06-17T02:47:04.726Z,97603.03
2023-06-17T02:50:08.744Z,97606.53
2023-06-17T02:53:11.908Z,97599.88
2023-06-17T02:56:14.788Z,97601.47
2023-06-17T02:59:19.531Z,97609.53
2023-06-17T03:02:24.795Z,97604.53
2023-06-17T03:05:28.027Z,97603.75
2023-06-17T03:08:34.670Z,97610.91
2023-06-17T03:11:37.531Z,97612.53
2023-06-17T03:14:41.630Z,97607.94
2023-06-17T03:17:49.325Z,97605.47
2023-06-17T03:20:54.548Z,97611.88
2023-06-17T03:23:59.768Z,97597.66
2023-06-17T03:27:02.703Z,97594.50
2023-06-17T03:30:07.836Z,97519.84
2023-06-17T03:33:10.833Z,97600.91
2023-06-17T03:36:13.650Z,97613.53
2023-06-17T03:39:15.957Z,97604.50
2023-06-17T03:42:18.176Z,97606.47
2023-06-17T03:45:20.590Z,97597.66
2023-06-17T03:48:24.734Z,97609.00
2023-06-17T03:51:26.899Z,97608.28
2023-06-17T03:54:30.075Z,97589.53
2023-06-17T03:57:32.257Z,97611.25
2023-06-17T04:00:34.502Z,97609.13
2023-06-17T04:03:36.821Z,97609.41
2023-06-17T04:06:39.118Z,97602.44
2023-06-17T04:09:48.084Z,97602.47
2023-06-17T04:13:00.246Z,97595.00
2023-06-17T04:16:03.700Z,97591.50
2023-06-17T04:19:05.927Z,97593.94
2023-06-17T04:22:08.193Z,97594.75
2023-06-17T04:25:12.794Z,97560.16
2023-06-17T04:28:19.502Z,97588.59
2023-06-17T04:31:21.711Z,97599.31
2023-06-17T04:34:24.700Z,97600.69
2023-06-17T04:37:30.214Z,97597.72
2023-06-17T04:40:33.536Z,97582.97
2023-06-17T04:43:39.870Z,97603.34
2023-06-17T04:46:46.758Z,97603.34
2023-06-17T04:49:52.978Z,97607.63
2023-06-17T04:52:55.901Z,97603.88
2023-06-17T04:56:01.834Z,97582.72
2023-06-17T04:59:05.614Z,97614.56
2023-06-17T05:02:08.430Z,97611.38
2023-06-17T05:05:10.782Z,97602.50
2023-06-17T05:08:13.315Z,97608.94
2023-06-17T05:11:16.486Z,97611.78
2023-06-17T05:14:20.360Z,97608.91
2023-06-17T05:17:24.134Z,97609.16
2023-06-17T05:20:26.526Z,97607.31
2023-06-17T05:23:29.003Z,97612.44
2023-06-17T05:26:31.884Z,97625.88
2023-06-17T05:29:34.104Z,97615.66
2023-06-17T05:32:36.726Z,97616.19
2023-06-17T05:35:39.729Z,97623.44
2023-06-17T05:38:41.960Z,97624.78
2023-06-17T05:41:44.189Z,97618.53
2023-06-17T05:44:46.416Z,97610.50
2023-06-17T05:47:48.859Z,97617.75
2023-06-17T05:50:51.898Z,97620.66
2023-06-17T05:53:54.852Z,97611.00
2023-06-17T05:56:57.048Z,97623.03
2023-06-17T05:59:59.245Z,97621.91
2023-06-17T06:03:01.453Z,97616.50
2023-06-17T06:06:03.721Z,97622.97
2023-06-17T06:09:05.925Z,97618.66
2023-06-17T06:12:08.544Z,97620.50
2023-06-17T06:15:11.785Z,97635.16
2023-06-17T06:18:15.259Z,97632.44
2023-06-17T06:21:17.416Z,97633.78
2023-06-17T06:24:19.756Z,97635.16
2023-06-17T06:27:22.567Z,97640.25
2023-06-17T06:30:25.405Z,97630.75
2023-06-17T06:33:31.615Z,97623.25
2023-06-17T06:36:34.017Z,97625.00
2023-06-17T06:39:36.751Z,97632.16
2023-06-17T06:42:39.233Z,97624.56
2023-06-17T06:45:56.235Z,97638.25
2023-06-17T06:49:00.701Z,97634.56
2023-06-17T06:52:03.975Z,97643.56
2023-06-17T06:55:06.922Z,97645.44
2023-06-17T06:58:10.709Z,97616.44
2023-06-17T07:01:13.003Z,97639.28
2023-06-17T07:04:16.194Z,97637.88
2023-06-17T07:07:18.823Z,97638.50
2023-06-17T07:10:22.532Z,97636.38
2023-06-17T07:13:25.355Z,97640.75
2023-06-17T07:16:28.652Z,97636.22
2023-06-17T07:19:31.706Z,97637.63
2023-06-17T07:22:34.051Z,97622.84
2023-06-17T07:25:38.298Z,97642.44
2023-06-17T07:28:40.582Z,97651.03
2023-06-17T07:31:42.744Z,97664.06
2023-06-17T07:34:44.948Z,97653.09
2023-06-17T07:37:47.236Z,97649.84
2023-06-17T07:40:49.910Z,97648.34
2023-06-17T07:43:52.089Z,97634.19
2023-06-17T07:46:54.354Z,97637.13
2023-06-17T07:49:56.556Z,97630.00
2023-06-17T07:52:58.804Z,97628.75
2023-06-17T07:56:01.346Z,97635.66
2023-06-17T07:59:03.626Z,97632.97
2023-06-17T08:02:08.795Z,97634.16
2023-06-17T08:05:12.200Z,97629.63
2023-06-17T08:08:14.446Z,97625.53
2023-06-17T08:11:16.838Z,97633.25
2023-06-17T08:14:19.634Z,97642.81
2023-06-17T08:17:22.344Z,97633.19
2023-06-17T08:20:24.724Z,97642.78
2023-06-17T08:23:27.215Z,97646.16
2023-06-17T08:26:29.620Z,97640.94
2023-06-17T08:29:32.512Z,97631.47
2023-06-17T08:32:34.900Z,97640.59
2023-06-17T08:35:37.242Z,97625.66
2023-06-17T08:38:39.349Z,97642.63
2023-06-17T08:41:43.889Z,97633.47
2023-06-17T08:44:48.004Z,97636.97
2023-06-17T08:47:50.343Z,97628.47
2023-06-17T08:50:54.757Z,97630.06
2023-06-17T08:53:58.229Z,97622.88
2023-06-17T08:57:01.799Z,97631.91
2023-06-17T09:00:05.623Z,97627.88
2023-06-17T09:03:10.356Z,97631.41
2023-06-17T09:06:27.575Z,97626.41
2023-06-17T09:09:30.118Z,97619.91
2023-06-17T09:12:39.378Z,97626.31
2023-06-17T09:15:41.974Z,97617.41
2023-06-17T09:18:44.258Z,97627.97
2023-06-17T09:21:49.768Z,97632.06
2023-06-17T09:24:59.397Z,97635.69
2023-06-17T09:31:08.024Z,97616.09
2023-06-17T09:34:11.944Z,97613.91
2023-06-17T09:37:14.312Z,97623.13
2023-06-17T09:40:17.110Z,97605.28
2023-06-17T09:46:36.708Z,97600.50
2023-06-17T09:49:39.869Z,97605.91
2023-06-17T09:52:42.652Z,97597.00
2023-06-17T09:55:45.109Z,97608.38
2023-06-17T09:58:48.860Z,97603.75
2023-06-17T10:01:51.794Z,97593.81
2023-06-17T10:04:54.956Z,97585.53
2023-06-17T10:07:59.042Z,97591.63
2023-06-17T10:11:01.925Z,97579.38
2023-06-17T10:14:09.260Z,97592.22
2023-06-17T10:17:12.759Z,97591.44
2023-06-17T10:20:17.431Z,97597.00
2023-06-17T10:23:22.223Z,97593.66
2023-06-17T10:26:25.254Z,97589.88
2023-06-17T10:29:27.514Z,97579.25
2023-06-17T10:32:29.973Z,97589.28
2023-06-17T10:35:41.844Z,97580.28
2023-06-17T10:38:58.357Z,97568.34
2023-06-17T10:42:01.405Z,97572.66
2023-06-17T10:45:13.823Z,97574.00
2023-06-17T10:48:20.844Z,97570.22
2023-06-17T10:51:36.097Z,97566.13
2023-06-17T10:54:53.845Z,97571.66
2023-06-17T10:57:59.155Z,97578.69
2023-06-17T11:01:03.517Z,97576.28
2023-06-17T11:04:09.218Z,97572.16
2023-06-17T11:07:15.427Z,97577.38
2023-06-17T11:10:18.699Z,97567.75
2023-06-17T11:13:25.182Z,97560.56
2023-06-17T11:16:27.844Z,97550.06
2023-06-17T11:19:30.099Z,97550.25
2023-06-17T11:22:32.358Z,97563.47
2023-06-17T11:25:44.238Z,97564.03
2023-06-17T11:28:51.249Z,97555.34
2023-06-17T11:31:55.105Z,97545.16
2023-06-17T11:34:57.925Z,97554.13
2023-06-17T11:38:01.318Z,97537.16
2023-06-17T11:41:03.515Z,97543.38
2023-06-17T11:44:06.903Z,97555.75
2023-06-17T11:47:10.926Z,97536.22
2023-06-17T11:50:13.382Z,97554.25
2023-06-17T11:53:15.456Z,97548.59
2023-06-17T11:56:23.536Z,97545.06
2023-06-17T11:59:26.084Z,97549.56
2023-06-17T12:02:31.873Z,97546.59
2023-06-17T12:05:34.834Z,97544.75
2023-06-17T12:08:38.747Z,97532.78
2023-06-17T12:11:41.510Z,97549.84
2023-06-17T12:14:43.777Z,97541.88
2023-06-17T12:17:50.061Z,97553.50
2023-06-17T12:20:52.426Z,97547.41
2023-06-17T12:23:57.613Z,97542.22
2023-06-17T12:27:00.621Z,97554.44
2023-06-17T12:30:05.258Z,97567.91
2023-06-17T12:33:07.556Z,97577.44
2023-06-17T12:36:09.761Z,97573.75
2023-06-17T12:39:12.126Z,97574.22
2023-06-17T12:42:14.273Z,97568.78
2023-06-17T12:45:16.614Z,97574.88
2023-06-17T12:48:19.042Z,97576.50
2023-06-17T12:51:21.361Z,97582.75
2023-06-17T12:54:24.473Z,97571.69
2023-06-17T12:57:28.506Z,97560.41
2023-06-17T13:00:30.687Z,97563.03
2023-06-17T13:03:34.461Z,97564.78
2023-06-17T13:06:39.683Z,97559.31
2023-06-17T13:09:42.597Z,97560.31
2023-06-17T13:12:46.673Z,97566.81
2023-06-17T13:15:50.574Z,97561.25
2023-06-17T13:18:56.755Z,97566.28
2023-06-17T13:21:59.563Z,97556.66
2023-06-17T13:25:02.030Z,97563.34
2023-06-17T13:28:04.210Z,97567.47
2023-06-17T13:31:06.691Z,97554.94
2023-06-17T13:34:09.879Z,97555.91
2023-06-17T13:37:12.299Z,97559.22
2023-06-17T13:40:14.553Z,97552.72
2023-06-17T13:43:17.473Z,97476.28
2023-06-17T13:46:20.003Z,97543.16
2023-06-17T13:49:22.841Z,97563.56
2023-06-17T13:52:25.199Z,97543.94
2023-06-17T13:55:27.495Z,97538.38
2023-06-17T13:58:29.583Z,97543.78
2023-06-17T14:01:31.758Z,97538.84
2023-06-17T14:04:34.001Z,97534.06
2023-06-17T14:07:36.360Z,97544.13
2023-06-17T14:10:38.570Z,97534.84
2023-06-17T14:13:41.691Z,97528.63
2023-06-17T14:16:45.395Z,97547.28
2023-06-17T14:19:47.546Z,97566.41
2023-06-17T14:22:50.597Z,97555.53
2023-06-17T14:25:52.788Z,97549.38
2023-06-17T14:28:54.850Z,97554.81
2023-06-17T14:31:57.155Z,97540.63
2023-06-17T14:35:00.327Z,97540.28
2023-06-17T14:38:02.629Z,97540.25
2023-06-17T14:41:04.790Z,97542.97
2023-06-17T14:44:06.995Z,97541.81
2023-06-17T14:47:10.407Z,97535.28
2023-06-17T14:50:13.398Z,97530.34
2023-06-17T14:53:34.282Z,97550.00
2023-06-17T14:56:37.035Z,97503.03
2023-06-17T14:59:39.212Z,97536.97
2023-06-17T15:02:52.972Z,97529.69
2023-06-17T15:05:55.222Z,97514.22
2023-06-17T15:09:37.735Z,97507.97
2023-06-17T15:12:43.537Z,97513.00
2023-06-17T15:15:46.088Z,97516.28
2023-06-17T15:18:48.218Z,97519.63
2023-06-17T15:21:50.557Z,97523.00
2023-06-17T15:24:54.112Z,97524.53
2023-06-17T15:27:56.290Z,97515.56
2023-06-17T15:30:58.432Z,97526.22
2023-06-17T15:34:00.934Z,97527.47
2023-06-17T15:37:03.470Z,97525.94
2023-06-17T15:40:09.280Z,97529.03
2023-06-17T15:43:11.462Z,97527.47
2023-06-17T15:46:13.620Z,97537.66
2023-06-17T15:49:15.917Z,97523.16
2023-06-17T15:52:18.090Z,97538.59
2023-06-17T15:55:20.228Z,97542.22
2023-06-17T15:58:22.791Z,97549.69
2023-06-17T16:01:25.016Z,97552.84
2023-06-17T16:04:35.918Z,97561.75
2023-06-17T16:07:38.104Z,97574.00
2023-06-17T16:10:41.643Z,97578.69
2023-06-17T16:13:44.096Z,97595.09
2023-06-17T16:16:46.468Z,97600.31
2023-06-17T16:19:48.785Z,97582.81
2023-06-17T16:22:50.937Z,97602.66
2023-06-17T16:25:55.980Z,97555.19
2023-06-17T16:28:58.515Z,97589.84
2023-06-17T16:32:00.629Z,97585.91
2023-06-17T16:35:02.840Z,97589.06
2023-06-17T16:38:05.103Z,97592.91
2023-06-17T16:41:07.264Z,97585.38
2023-06-17T16:44:09.654Z,97589.78
2023-06-17T16:47:12.451Z,97590.16
2023-06-17T16:50:15.063Z,97594.59
2023-06-17T16:53:19.549Z,97608.47
2023-06-17T16:56:21.761Z,97618.28
2023-06-17T16:59:24.297Z,97638.16
2023-06-17T17:02:26.475Z,97665.00
2023-06-17T17:05:28.952Z,97665.72
2023-06-17T17:08:33.000Z,97664.88
2023-06-17T17:11:35.631Z,97655.75
2023-06-17T17:14:50.494Z,97646.75
2023-06-17T17:18:06.230Z,97640.31
2023-06-17T17:21:28.822Z,97634.31
2023-06-17T17:24:59.981Z,97629.38
2023-06-17T17:28:03.433Z,97615.19
2023-06-17T17:31:05.843Z,97624.06
2023-06-17T17:34:07.991Z,97618.75
2023-06-17T17:37:10.454Z,97611.22
2023-06-17T17:40:12.990Z,97600.38
2023-06-17T17:43:15.335Z,97610.16
2023-06-17T17:46:17.574Z,97607.41
2023-06-17T17:49:19.734Z,97608.03
2023-06-17T17:52:22.157Z,97603.28
2023-06-17T17:55:24.354Z,97602.38
2023-06-17T17:58:26.642Z,97611.34
2023-06-17T18:01:29.374Z,97613.34
2023-06-17T18:04:31.533Z,97609.47
2023-06-17T18:07:33.727Z,97603.13
2023-06-17T18:10:35.961Z,97620.47
2023-06-17T18:13:38.292Z,97611.91
2023-06-17T18:16:41.172Z,97614.97
2023-06-17T18:19:44.679Z,97620.44
2023-06-17T18:22:46.954Z,97622.44
2023-06-17T18:25:49.146Z,97623.09
2023-06-17T18:28:51.915Z,97623.84
2023-06-17T18:31:54.696Z,97626.31
2023-06-17T18:34:56.930Z,97616.47
2023-06-17T18:38:00.990Z,97628.00
2023-06-17T18:41:03.619Z,97639.31
2023-06-17T18:44:05.719Z,97643.38
2023-06-17T18:47:08.214Z,97635.09
2023-06-17T18:50:11.180Z,97621.19
2023-06-17T18:53:13.239Z,97636.22
2023-06-17T18:56:15.372Z,97639.19
2023-06-17T18:59:17.758Z,97649.69
2023-06-17T19:02:21.570Z,97639.53
2023-06-17T19:05:23.789Z,97633.41
2023-06-17T19:08:26.011Z,97632.38
2023-06-17T19:11:28.101Z,97641.47
2023-06-17T19:14:30.251Z,97643.66
2023-06-17T19:17:33.145Z,97644.50
2023-06-17T19:20:35.585Z,97631.41
2023-06-17T19:23:37.800Z,97654.22
2023-06-17T19:26:40.021Z,97660.97
2023-06-17T19:29:46.069Z,97652.41
2023-06-17T19:32:49.576Z,97664.75
2023-06-17T19:35:51.854Z,97674.13
2023-06-17T19:38:54.215Z,97679.75
2023-06-17T19:41:56.597Z,97681.66
2023-06-17T19:44:58.738Z,97692.91
2023-06-17T19:48:08.386Z,97690.75
2023-06-17T19:51:10.936Z,97698.19
2023-06-17T19:54:14.007Z,97693.28
2023-06-17T19:57:16.384Z,97714.50
2023-06-17T20:00:19.128Z,97705.34
2023-06-17T20:03:21.807Z,97706.41
2023-06-17T20:06:26.488Z,97735.88
2023-06-17T20:09:29.005Z,97720.31
2023-06-17T20:12:31.429Z,97696.97
2023-06-17T20:15:34.466Z,97705.00
2023-06-17T20:18:36.862Z,97696.72
2023-06-17T20:21:39.148Z,97701.81
2023-06-17T20:24:41.375Z,97686.28
2023-06-17T20:27:45.581Z,97679.63
2023-06-17T20:30:47.936Z,97645.81
2023-06-17T20:33:50.250Z,97675.56
2023-06-17T20:36:52.346Z,97680.66
2023-06-17T20:39:54.694Z,97673.41
2023-06-17T20:42:56.917Z,97673.38
2023-06-17T20:45:59.174Z,97684.34
2023-06-17T20:49:01.474Z,97685.09
2023-06-17T20:52:03.815Z,97680.22
2023-06-17T20:55:06.648Z,97677.53
2023-06-17T20:58:08.915Z,97671.63
2023-06-17T21:01:12.212Z,97684.47
2023-06-17T21:04:14.459Z,97667.00
2023-06-17T21:07:16.859Z,97690.63
2023-06-17T21:10:19.844Z,97683.56
2023-06-17T21:13:22.160Z,97689.19
2023-06-17T21:16:24.448Z,97673.72
2023-06-17T21:19:26.577Z,97686.31
2023-06-17T21:22:28.737Z,97668.81
2023-06-17T21:25:31.166Z,97686.03
2023-06-17T21:28:33.685Z,97687.84
2023-06-17T21:31:36.012Z,97690.94
2023-06-17T21:34:38.753Z,97696.81
2023-06-17T21:37:40.911Z,97698.03
2023-06-17T21:40:43.078Z,97694.97
2023-06-17T21:43:45.333Z,97671.81
2023-06-17T21:46:49.040Z,97696.00
2023-06-17T21:49:52.131Z,97681.16
2023-06-17T21:52:56.196Z,97693.72
2023-06-17T21:55:58.350Z,97699.44
2023-06-17T21:59:00.666Z,97697.13
2023-06-17T22:02:03.070Z,97697.81
2023-06-17T22:05:05.701Z,97703.06
2023-06-17T22:08:07.991Z,97701.22
2023-06-17T22:11:10.673Z,97697.81
2023-06-17T22:14:12.892Z,97700.22
2023-06-17T22:17:15.032Z,97695.97
2023-06-17T22:20:17.295Z,97668.53
2023-06-17T22:23:19.755Z,97699.69
2023-06-17T22:26:21.886Z,97696.34
2023-06-17T22:29:24.094Z,97701.28
2023-06-17T22:32:26.286Z,97649.19
2023-06-17T22:35:28.811Z,97680.19
2023-06-17T22:38:30.993Z,97671.09
2023-06-17T22:41:33.122Z,97692.63
2023-06-17T22:44:35.283Z,97689.56
2023-06-17T22:47:37.768Z,97695.28
2023-06-17T22:50:40.021Z,97697.44
2023-06-17T22:53:42.117Z,97695.97
2023-06-17T22:56:44.316Z,97687.97
2023-06-17T22:59:47.082Z,97665.16
2023-06-17T23:02:49.467Z,97689.75
2023-06-17T23:05:51.763Z,97660.16
2023-06-17T23:08:53.922Z,97667.66
2023-06-17T23:11:56.318Z,97697.94
2023-06-17T23:14:58.515Z,97697.38
2023-06-17T23:18:00.726Z,97696.78
2023-06-17T23:21:03.058Z,97687.81
2023-06-17T23:24:05.614Z,97689.13
2023-06-17T23:27:07.904Z,97684.59
2023-06-17T23:30:10.992Z,97683.47
2023-06-17T23:33:15.106Z,97640.81
2023-06-17T23:36:17.250Z,97691.03
2023-06-17T23:39:19.430Z,97682.50
2023-06-17T23:42:21.548Z,97667.63
2023-06-17T23:45:27.776Z,97683.88
2023-06-17T23:48:31.089Z,97686.63
2023-06-17T23:51:33.323Z,97683.81
2023-06-17T23:54:35.932Z,97687.19
2023-06-17T23:57:38.122Z,97677.63
